createdAt,value
2018-12-13T02:45:17.736Z,7.40
2018-12-13T02:47:47.260Z,7.50
2018-12-13T02:50:17.843Z,7.50
2018-12-13T02:52:47.463Z,7.50
2018-12-13T03:05:20.854Z,7.60
2018-12-13T03:07:51.297Z,7.60
2018-12-13T03:10:20.666Z,7.60
2018-12-13T03:12:50.075Z,7.60
2018-12-13T03:15:21.281Z,7.70
2018-12-13T03:45:52.385Z,7.60
2018-12-13T03:48:21.991Z,7.60
2018-12-13T03:50:51.689Z,7.60
2018-12-13T03:53:22.152Z,7.60
2018-12-13T03:55:51.804Z,7.60
2018-12-13T03:58:22.239Z,7.60
2018-12-13T04:00:59.474Z,7.70
2018-12-13T04:03:29.175Z,7.70
2018-12-13T04:06:01.018Z,7.60
2018-12-13T04:29:33.032Z,7.60
2018-12-13T04:35:35.146Z,7.60
2018-12-13T04:38:04.740Z,7.60
2018-12-13T04:40:34.248Z,7.60
2018-12-13T04:43:04.106Z,7.60
2018-12-13T04:45:34.443Z,7.70
2018-12-13T04:48:05.190Z,7.70
2018-12-13T04:50:34.645Z,7.60
2018-12-13T04:53:04.372Z,7.60
2018-12-13T04:55:34.028Z,7.60
2018-12-13T04:58:04.033Z,7.70
2018-12-13T05:00:33.788Z,7.70
2018-12-13T05:03:04.708Z,7.70
2018-12-13T05:05:34.379Z,7.70
2018-12-13T05:08:04.570Z,7.70
2018-12-13T05:10:45.104Z,7.70
2018-12-13T05:13:14.704Z,7.70
2018-12-13T05:15:44.784Z,7.70
2018-12-13T05:18:14.162Z,7.70
2018-12-13T05:20:43.732Z,7.80
2018-12-13T05:23:14.232Z,7.80
2018-12-13T05:25:43.695Z,7.80
2018-12-13T05:28:13.285Z,7.80
2018-12-13T05:30:42.783Z,7.80
2018-12-13T05:33:12.396Z,7.90
2018-12-13T05:35:42.062Z,7.90
2018-12-13T05:38:11.668Z,7.90
2018-12-13T05:40:41.415Z,7.90
2018-12-13T05:43:11.738Z,7.90
2018-12-13T05:45:41.175Z,7.90
2018-12-13T05:48:11.745Z,7.80
2018-12-13T05:50:41.418Z,7.90
2018-12-13T05:53:11.300Z,7.90
2018-12-13T05:55:41.398Z,7.90
2018-12-13T05:58:11.912Z,7.90
2018-12-13T06:00:41.424Z,7.90
2018-12-13T06:03:10.763Z,7.90
2018-12-13T06:05:40.640Z,7.90
2018-12-13T06:08:10.891Z,7.80
2018-12-13T06:10:40.541Z,7.90
2018-12-13T06:13:09.887Z,7.90
2018-12-13T06:15:39.462Z,7.90
2018-12-13T06:18:09.059Z,7.80
2018-12-13T06:20:39.022Z,7.80
2018-12-13T06:23:10.229Z,7.80
2018-12-13T06:25:40.752Z,7.80
2018-12-13T06:28:10.836Z,7.70
2018-12-13T06:30:40.542Z,7.70
2018-12-13T06:33:10.261Z,7.60
2018-12-13T06:35:46.837Z,7.70
2018-12-13T06:38:16.910Z,7.70
2018-12-13T06:40:46.538Z,7.70
2018-12-13T06:43:15.838Z,7.70
2018-12-13T06:45:45.422Z,7.70
2018-12-13T06:48:14.664Z,7.70
2018-12-13T06:50:44.818Z,7.70
2018-12-13T06:53:15.338Z,7.60
2018-12-13T06:55:45.788Z,7.70
2018-12-13T06:58:15.658Z,7.70
2018-12-13T07:00:45.016Z,7.70
2018-12-13T07:03:14.531Z,7.70
2018-12-13T07:05:43.864Z,7.70
2018-12-13T07:08:13.651Z,7.70
2018-12-13T07:10:43.117Z,7.70
2018-12-13T07:13:12.703Z,7.70
2018-12-13T07:15:42.291Z,7.70
2018-12-13T07:18:12.810Z,7.70
2018-12-13T07:20:42.426Z,7.70
2018-12-13T07:23:12.351Z,7.70
2018-12-13T07:25:42.236Z,7.60
2018-12-13T07:28:11.999Z,7.60
2018-12-13T07:30:42.231Z,7.70
2018-12-13T07:33:12.717Z,7.70
2018-12-13T07:35:42.224Z,7.70
2018-12-13T07:38:14.275Z,7.70
2018-12-13T07:40:41.759Z,7.80
2018-12-13T07:43:11.344Z,7.70
2018-12-13T07:45:40.831Z,7.80
2018-12-13T07:48:10.195Z,7.80
2018-12-13T07:50:40.870Z,7.80
2018-12-13T07:53:11.338Z,7.80
2018-12-13T07:55:41.034Z,7.70
2018-12-13T07:58:10.597Z,7.70
2018-12-13T08:00:40.186Z,7.70
2018-12-13T08:03:09.772Z,7.80
2018-12-13T08:05:39.369Z,7.70
2018-12-13T08:08:09.138Z,7.70
2018-12-13T08:10:38.569Z,7.80
2018-12-13T08:13:08.168Z,7.80
2018-12-13T08:15:37.638Z,7.80
2018-12-13T08:18:07.384Z,7.90
2018-12-13T08:20:37.000Z,7.80
2018-12-13T08:23:06.625Z,7.80
2018-12-13T08:25:36.272Z,7.70
2018-12-13T08:28:05.694Z,7.70
2018-12-13T08:30:35.144Z,7.70
2018-12-13T08:33:04.774Z,7.80
2018-12-13T08:35:34.342Z,7.80
2018-12-13T08:38:03.737Z,7.90
2018-12-13T08:40:33.549Z,7.80
2018-12-13T08:43:03.033Z,7.70
2018-12-13T08:45:32.598Z,7.60
2018-12-13T08:48:03.000Z,7.50
2018-12-13T08:50:32.548Z,7.50
2018-12-13T08:53:02.100Z,7.60
2018-12-13T08:55:31.398Z,7.60
2018-12-13T08:58:00.716Z,7.70
2018-12-13T09:00:30.139Z,7.60
2018-12-13T09:02:59.850Z,7.60
2018-12-13T09:05:29.534Z,7.60
2018-12-13T09:07:59.298Z,7.70
2018-12-13T09:10:29.755Z,7.70
2018-12-13T09:12:59.276Z,7.70
2018-12-13T09:15:28.699Z,7.70
2018-12-13T09:17:58.330Z,7.60
2018-12-13T09:20:27.878Z,7.60
2018-12-13T09:22:57.413Z,7.60
2018-12-13T09:25:27.102Z,7.50
2018-12-13T09:27:56.579Z,7.60
2018-12-13T09:30:26.327Z,7.70
2018-12-13T09:32:55.631Z,7.70
2018-12-13T09:35:25.232Z,7.70
2018-12-13T09:37:54.807Z,7.70
2018-12-13T09:40:24.704Z,7.60
2018-12-13T09:42:54.395Z,7.60
2018-12-13T09:45:24.280Z,7.60
2018-12-13T09:47:53.451Z,7.60
2018-12-13T09:50:22.831Z,7.60
2018-12-13T09:52:51.806Z,7.60
2018-12-13T09:55:21.318Z,7.60
2018-12-13T09:57:50.730Z,7.60
2018-12-13T10:00:20.315Z,7.60
2018-12-13T10:02:50.770Z,7.50
2018-12-13T10:05:20.347Z,7.50
2018-12-13T10:07:49.663Z,7.50
2018-12-13T10:10:19.841Z,7.50
2018-12-13T10:12:49.467Z,7.50
2018-12-13T10:15:20.242Z,7.50
2018-12-13T10:17:51.038Z,7.50
2018-12-13T10:20:20.434Z,7.50
2018-12-13T10:22:49.716Z,7.50
2018-12-13T10:25:19.099Z,7.50
2018-12-13T10:27:48.826Z,7.50
2018-12-13T10:30:19.369Z,7.50
2018-12-13T10:32:50.094Z,7.50
2018-12-13T10:35:19.289Z,7.50
2018-12-13T10:37:48.725Z,7.60
2018-12-13T10:40:18.366Z,7.50
2018-12-13T10:42:48.935Z,7.60
2018-12-13T10:45:18.403Z,7.60
2018-12-13T10:47:47.605Z,7.60
2018-12-13T10:50:16.934Z,7.50
2018-12-13T10:52:45.767Z,7.60
2018-12-13T10:55:15.179Z,7.50
2018-12-13T10:57:44.672Z,7.50
2018-12-13T11:00:20.479Z,7.50
2018-12-13T11:03:00.850Z,7.50
2018-12-13T11:05:30.451Z,7.50
2018-12-13T11:08:00.016Z,7.50
2018-12-13T11:10:29.427Z,7.50
2018-12-13T11:12:59.045Z,7.50
2018-12-13T11:15:29.756Z,7.40
2018-12-13T11:17:59.223Z,7.50
2018-12-13T11:20:28.778Z,7.30
2018-12-13T11:22:58.336Z,7.40
2018-12-13T11:25:28.758Z,7.40
2018-12-13T11:30:57.276Z,7.40
2018-12-13T11:33:26.632Z,7.40
2018-12-13T11:35:55.945Z,7.40
2018-12-13T11:38:25.748Z,7.30
2018-12-13T11:40:55.368Z,7.30
2018-12-13T11:43:25.248Z,7.30
2018-12-13T11:45:54.768Z,7.20
2018-12-13T11:48:24.163Z,7.20
2018-12-13T11:50:54.034Z,7.20
2018-12-13T11:53:23.359Z,7.20
2018-12-13T11:55:52.648Z,7.20
2018-12-13T11:58:22.120Z,7.20
2018-12-13T12:00:51.478Z,7.20
2018-12-13T12:03:21.802Z,7.00
2018-12-13T12:05:51.273Z,7.00
2018-12-13T12:08:21.563Z,7.00
2018-12-13T12:10:51.157Z,7.00
2018-12-13T12:13:20.541Z,7.00
2018-12-13T12:15:51.432Z,7.10
2018-12-13T12:18:21.120Z,7.10
2018-12-13T12:20:50.574Z,7.10
2018-12-13T12:23:20.031Z,7.10
2018-12-13T12:25:50.461Z,7.00
2018-12-13T12:28:19.991Z,7.10
2018-12-13T12:30:49.448Z,7.00
2018-12-13T12:33:18.926Z,7.10
2018-12-13T12:35:48.393Z,7.00
2018-12-13T12:38:18.791Z,7.00
2018-12-13T12:40:48.142Z,7.00
2018-12-13T12:43:17.716Z,7.00
2018-12-13T12:45:47.389Z,7.00
2018-12-13T12:48:17.277Z,7.00
2018-12-13T12:50:46.833Z,7.00
2018-12-13T12:53:16.295Z,6.90
2018-12-13T12:55:47.448Z,6.80
2018-12-13T12:58:16.845Z,6.80
2018-12-13T13:00:46.058Z,6.80
2018-12-13T13:03:15.647Z,6.80
2018-12-13T13:05:46.104Z,6.90
2018-12-13T13:08:15.538Z,6.80
2018-12-13T13:10:45.145Z,6.80
2018-12-13T13:13:14.909Z,6.80
2018-12-13T13:15:44.295Z,6.80
2018-12-13T13:18:13.960Z,6.80
2018-12-13T13:20:43.316Z,6.90
2018-12-13T13:23:12.598Z,6.90
2018-12-13T13:25:43.939Z,6.90
2018-12-13T13:28:13.524Z,6.90
2018-12-13T13:30:42.979Z,6.70
2018-12-13T13:33:12.683Z,6.70
2018-12-13T13:35:42.201Z,6.80
2018-12-13T13:38:11.809Z,6.80
2018-12-13T13:40:41.010Z,6.80
2018-12-13T13:43:10.992Z,6.70
2018-12-13T13:45:40.754Z,6.70
2018-12-13T13:48:10.144Z,6.70
2018-12-13T13:50:39.378Z,6.70
2018-12-13T13:53:08.958Z,6.80
2018-12-13T13:55:38.491Z,6.70
2018-12-13T13:58:07.922Z,6.70
2018-12-13T14:00:38.119Z,6.70
2018-12-13T14:03:07.869Z,6.70
2018-12-13T14:05:37.814Z,6.80
2018-12-13T14:08:07.107Z,6.80
2018-12-13T14:10:37.767Z,6.80
2018-12-13T14:13:07.226Z,6.80
2018-12-13T14:15:36.780Z,6.80
2018-12-13T14:18:06.480Z,6.80
2018-12-13T14:20:36.150Z,6.70
2018-12-13T14:23:05.921Z,6.70
2018-12-13T14:25:35.332Z,6.70
2018-12-13T14:28:04.870Z,6.70
2018-12-13T14:30:34.422Z,6.60
2018-12-13T14:33:04.134Z,6.50
2018-12-13T14:35:33.487Z,6.60
2018-12-13T14:38:03.094Z,6.60
2018-12-13T14:40:32.535Z,6.70
2018-12-13T14:43:02.163Z,6.60
2018-12-13T14:45:31.779Z,6.70
2018-12-13T14:48:00.941Z,6.70
2018-12-13T14:50:31.415Z,6.70
2018-12-13T14:53:01.155Z,6.80
2018-12-13T14:55:31.606Z,6.70
2018-12-13T14:58:01.130Z,6.70
2018-12-13T15:00:30.395Z,6.80
2018-12-13T15:02:59.970Z,6.80
2018-12-13T15:05:29.430Z,6.80
2018-12-13T15:07:59.522Z,6.80
2018-12-13T15:10:29.946Z,6.90
2018-12-13T15:12:59.400Z,6.80
2018-12-13T15:15:28.991Z,6.90
2018-12-13T15:17:58.513Z,6.90
2018-12-13T15:20:28.816Z,6.90
2018-12-13T15:22:59.317Z,6.90
2018-12-13T15:25:28.651Z,6.90
2018-12-13T15:27:58.231Z,6.80
2018-12-13T15:30:27.863Z,6.80
2018-12-13T15:32:57.087Z,6.90
2018-12-13T15:35:26.735Z,6.90
2018-12-13T15:37:56.683Z,6.90
2018-12-13T15:40:27.315Z,6.90
2018-12-13T15:42:56.868Z,6.90
2018-12-13T15:45:26.588Z,6.80
2018-12-13T15:47:57.654Z,6.90
2018-12-13T15:50:27.270Z,6.90
2018-12-13T15:52:56.987Z,6.90
2018-12-13T15:55:26.289Z,6.90
2018-12-13T15:57:56.517Z,6.80
2018-12-13T16:00:26.102Z,6.80
2018-12-13T16:02:55.667Z,6.80
2018-12-13T16:05:25.235Z,6.90
2018-12-13T16:07:54.765Z,6.80
2018-12-13T16:10:24.382Z,6.80
2018-12-13T16:12:53.956Z,6.90
2018-12-13T16:15:23.841Z,6.90
2018-12-13T16:17:53.494Z,6.90
2018-12-13T16:20:23.063Z,6.90
2018-12-13T16:22:52.451Z,7.00
2018-12-13T16:25:22.386Z,7.00
2018-12-13T16:27:51.758Z,7.00
2018-12-13T16:30:21.305Z,6.90
2018-12-13T16:32:51.982Z,6.80
2018-12-13T16:35:22.538Z,6.80
2018-12-13T16:37:52.071Z,6.90
2018-12-13T16:40:21.544Z,6.90
2018-12-13T16:42:51.219Z,7.00
2018-12-13T16:45:20.760Z,7.00
2018-12-13T16:47:50.259Z,7.00
2018-12-13T16:50:19.641Z,7.00
2018-12-13T16:52:48.859Z,7.00
2018-12-13T16:55:18.256Z,6.90
2018-12-13T16:57:47.775Z,6.90
2018-12-13T17:00:17.926Z,7.00
2018-12-13T17:02:47.389Z,7.00
2018-12-13T17:05:16.887Z,6.90
2018-12-13T17:07:46.078Z,7.00
2018-12-13T17:10:16.971Z,7.00
2018-12-13T17:12:45.991Z,7.30
2018-12-13T17:15:15.346Z,7.10
2018-12-13T17:17:44.586Z,7.20
2018-12-13T17:20:13.958Z,7.10
2018-12-13T17:22:43.722Z,7.20
2018-12-13T17:25:13.882Z,7.20
2018-12-13T17:27:43.656Z,7.20
2018-12-13T17:30:15.502Z,7.20
2018-12-13T17:32:44.982Z,7.20
2018-12-13T17:35:14.578Z,7.20
2018-12-13T17:37:43.851Z,7.20
2018-12-13T17:40:13.308Z,7.20
2018-12-13T17:42:42.744Z,7.30
2018-12-13T17:45:14.267Z,7.40
2018-12-13T17:47:44.630Z,7.40
2018-12-13T17:50:14.083Z,7.40
2018-12-13T17:52:43.654Z,7.30
2018-12-13T17:55:13.151Z,7.30
2018-12-13T17:57:44.271Z,7.40
2018-12-13T18:00:14.182Z,7.40
2018-12-13T18:02:43.784Z,7.40
2018-12-13T18:05:13.326Z,7.40
2018-12-13T18:07:42.985Z,7.40
2018-12-13T18:10:12.592Z,7.50
2018-12-13T18:12:42.324Z,7.50
2018-12-13T18:15:13.700Z,7.50
2018-12-13T18:17:43.403Z,7.50
2018-12-13T18:20:13.355Z,7.50
2018-12-13T18:22:42.390Z,8.10
2018-12-13T18:29:40.453Z,7.90
2018-12-13T18:32:10.440Z,7.70
2018-12-13T18:34:40.113Z,7.70
2018-12-13T18:37:09.321Z,7.70
2018-12-13T18:39:38.708Z,7.70
2018-12-13T18:42:07.811Z,7.70
2018-12-13T18:44:37.420Z,7.60
2018-12-13T18:47:06.884Z,7.60
2018-12-13T18:49:36.690Z,7.60
2018-12-13T18:52:07.058Z,7.60
2018-12-13T18:54:36.385Z,7.60
2018-12-13T18:57:05.729Z,7.70
2018-12-13T18:59:35.351Z,7.80
2018-12-13T19:02:05.781Z,7.80
2018-12-13T19:04:35.288Z,7.80
2018-12-13T19:07:05.022Z,7.80
2018-12-13T19:09:34.782Z,7.80
2018-12-13T19:12:05.202Z,8.00
2018-12-13T19:14:34.535Z,8.00
2018-12-13T19:17:04.296Z,8.00
2018-12-13T19:19:34.031Z,8.10
2018-12-13T19:22:03.572Z,8.10
2018-12-13T19:24:34.232Z,8.10
2018-12-13T19:27:03.792Z,8.10
2018-12-13T19:29:33.318Z,8.10
2018-12-13T19:32:02.914Z,8.10
2018-12-13T19:34:32.732Z,8.10
2018-12-13T19:37:02.457Z,8.10
2018-12-13T19:39:33.066Z,8.10
2018-12-13T19:42:02.646Z,8.20
2018-12-13T19:44:32.376Z,8.20
2018-12-13T19:47:15.175Z,8.20
2018-12-13T19:49:46.016Z,8.10
2018-12-13T19:52:16.768Z,8.20
2018-12-13T19:54:46.583Z,8.10
2018-12-13T19:57:17.170Z,8.20
2018-12-13T19:59:47.565Z,8.20
2018-12-13T20:02:19.763Z,8.20
2018-12-13T20:04:49.693Z,8.20
2018-12-13T20:07:19.560Z,8.20
2018-12-13T20:09:49.260Z,8.20
2018-12-13T20:12:18.502Z,8.20
2018-12-13T20:14:48.818Z,8.20
2018-12-13T20:17:19.307Z,8.20
2018-12-13T20:19:48.817Z,8.20
2018-12-13T20:22:19.018Z,8.20
2018-12-13T20:24:48.379Z,8.20
2018-12-13T20:27:18.766Z,8.10
2018-12-13T20:29:49.589Z,8.10
2018-12-13T20:32:22.613Z,8.20
2018-12-13T20:34:52.450Z,8.20
2018-12-13T20:37:21.764Z,8.20
2018-12-13T20:39:55.798Z,8.30
2018-12-13T20:42:25.330Z,8.30
2018-12-13T20:44:55.176Z,8.30
2018-12-13T20:47:26.043Z,8.30
2018-12-13T20:49:56.137Z,8.30
2018-12-13T20:52:26.013Z,8.30
2018-12-13T20:54:55.778Z,8.30
2018-12-13T20:57:27.987Z,8.30
2018-12-13T20:59:58.976Z,8.30
2018-12-13T21:02:30.893Z,8.30
2018-12-13T21:05:00.485Z,8.30
2018-12-13T21:07:36.281Z,8.30
2018-12-13T21:10:08.183Z,8.30
2018-12-13T21:12:38.616Z,8.40
2018-12-13T21:15:08.562Z,8.40
2018-12-13T21:17:38.128Z,8.30
2018-12-13T21:20:09.017Z,8.30
2018-12-13T21:22:39.298Z,8.30
2018-12-13T21:25:10.358Z,8.30
2018-12-13T21:27:40.737Z,8.30
2018-12-13T21:30:11.226Z,8.30
2018-12-13T21:32:41.909Z,8.30
2018-12-13T21:35:14.542Z,8.30
2018-12-13T21:37:45.801Z,8.30
2018-12-13T21:40:16.172Z,8.30
2018-12-13T21:42:48.447Z,8.30
2018-12-13T21:45:19.622Z,8.30
2018-12-13T21:47:48.969Z,8.40
2018-12-13T21:50:20.791Z,8.30
2018-12-13T21:52:51.043Z,8.30
2018-12-13T21:55:20.693Z,8.30
2018-12-13T21:57:54.495Z,8.30
2018-12-13T22:00:25.151Z,8.30
2018-12-13T22:02:54.824Z,8.30
2018-12-13T22:05:26.328Z,8.30
2018-12-13T22:07:57.206Z,8.30
2018-12-13T22:10:31.237Z,8.40
2018-12-13T22:13:01.876Z,8.30
2018-12-13T22:15:33.507Z,8.30
2018-12-13T22:18:04.432Z,8.30
2018-12-13T22:20:34.927Z,8.40
2018-12-13T22:23:05.036Z,8.40
2018-12-13T22:25:36.645Z,8.40
2018-12-13T22:28:06.617Z,8.40
2018-12-13T22:30:36.280Z,8.40
2018-12-13T22:33:06.320Z,8.40
2018-12-13T22:35:37.999Z,8.40
2018-12-13T22:38:07.683Z,8.40
2018-12-13T22:40:37.248Z,8.40
2018-12-13T22:43:11.134Z,8.40
2018-12-13T22:45:40.665Z,8.40
2018-12-13T22:48:11.182Z,8.40
2018-12-13T22:50:40.927Z,8.40
2018-12-13T22:53:11.323Z,8.40
2018-12-13T22:55:41.283Z,8.40
2018-12-13T22:58:10.972Z,8.40
2018-12-13T23:00:41.014Z,8.50
2018-12-13T23:03:10.864Z,8.40
2018-12-13T23:05:40.468Z,8.40
2018-12-13T23:08:11.100Z,8.40
2018-12-13T23:10:43.336Z,8.50
2018-12-13T23:13:14.639Z,8.50
2018-12-13T23:15:44.290Z,8.50
2018-12-13T23:18:14.686Z,8.50
2018-12-13T23:20:45.267Z,8.50
2018-12-13T23:23:16.046Z,8.40
2018-12-13T23:25:46.329Z,8.50
2018-12-13T23:28:16.606Z,8.50
2018-12-13T23:30:46.146Z,8.50
2018-12-13T23:33:17.822Z,8.50
2018-12-13T23:35:47.763Z,8.40
2018-12-13T23:38:18.206Z,8.50
2018-12-13T23:40:47.627Z,8.50
2018-12-13T23:43:17.082Z,8.50
2018-12-13T23:45:46.722Z,8.50
2018-12-13T23:48:16.371Z,8.40
2018-12-13T23:50:46.173Z,8.40
2018-12-13T23:53:15.497Z,8.40
2018-12-13T23:55:46.990Z,8.40
2018-12-13T23:58:16.754Z,8.40
